createdAt,value
2023-04-22T00:00:22.856Z,8.40
2023-04-22T00:02:49.654Z,9.50
2023-04-22T00:05:20.273Z,8.40
2023-04-22T00:07:47.761Z,8.30
2023-04-22T00:10:14.530Z,8.30
2023-04-22T00:12:41.230Z,8.30
2023-04-22T00:15:08.657Z,8.20
2023-04-22T00:17:36.005Z,8.20
2023-04-22T00:20:03.657Z,8.20
2023-04-22T00:22:30.327Z,8.20
2023-04-22T00:24:57.011Z,8.20
2023-04-22T00:27:23.731Z,8.10
2023-04-22T00:29:50.425Z,8.10
2023-04-22T00:32:17.281Z,9.80
2023-04-22T00:34:44.010Z,8.10
2023-04-22T00:37:10.801Z,8.10
2023-04-22T00:39:39.546Z,8.00
2023-04-22T00:42:07.781Z,8.00
2023-04-22T00:44:36.261Z,9.40
2023-04-22T00:47:03.590Z,7.90
2023-04-22T00:49:31.244Z,9.50
2023-04-22T00:51:57.934Z,7.90
2023-04-22T00:54:24.640Z,7.90
2023-04-22T00:56:51.450Z,7.80
2023-04-22T00:59:18.170Z,8.30
2023-04-22T01:01:44.891Z,7.80
2023-04-22T01:04:12.818Z,7.70
2023-04-22T01:06:41.092Z,7.70
2023-04-22T01:09:07.901Z,7.60
2023-04-22T01:11:36.278Z,7.60
2023-04-22T01:14:03.819Z,7.60
2023-04-22T01:16:34.133Z,7.60
2023-04-22T01:19:01.107Z,7.60
2023-04-22T01:21:28.195Z,7.50
2023-04-22T01:23:55.121Z,7.50
2023-04-22T01:26:22.394Z,7.50
2023-04-22T01:28:49.172Z,7.50
2023-04-22T01:31:16.035Z,7.50
2023-04-22T01:33:44.381Z,7.50
2023-04-22T01:36:13.008Z,7.50
2023-04-22T01:38:40.876Z,7.50
2023-04-22T01:41:08.033Z,7.50
2023-04-22T01:43:35.023Z,7.50
2023-04-22T01:46:02.503Z,7.40
2023-04-22T01:48:29.253Z,7.40
2023-04-22T01:50:56.079Z,8.00
2023-04-22T01:53:22.868Z,7.30
2023-04-22T01:55:49.527Z,7.30
2023-04-22T01:58:16.399Z,7.30
2023-04-22T02:00:43.079Z,7.30
2023-04-22T02:03:10.095Z,7.30
2023-04-22T02:05:38.096Z,7.20
2023-04-22T02:08:04.922Z,7.20
2023-04-22T02:10:31.967Z,7.10
2023-04-22T02:12:59.352Z,7.10
2023-04-22T02:15:26.198Z,7.10
2023-04-22T02:17:53.087Z,7.00
2023-04-22T02:20:19.966Z,7.00
2023-04-22T02:22:46.738Z,6.90
2023-04-22T02:25:15.006Z,6.90
2023-04-22T02:27:41.702Z,6.90
2023-04-22T02:30:09.703Z,6.80
2023-04-22T02:32:38.771Z,6.90
2023-04-22T02:35:06.641Z,7.70
2023-04-22T02:37:33.370Z,6.80
2023-04-22T02:40:00.011Z,6.80
2023-04-22T02:42:26.792Z,6.80
2023-04-22T02:44:53.520Z,6.70
2023-04-22T02:47:20.447Z,7.40
2023-04-22T02:49:47.153Z,6.70
2023-04-22T02:52:14.005Z,6.60
2023-04-22T02:54:40.688Z,6.60
2023-04-22T02:57:07.647Z,8.40
2023-04-22T02:59:35.886Z,6.50
2023-04-22T03:02:04.409Z,6.50
2023-04-22T03:04:33.645Z,7.10
2023-04-22T03:07:00.426Z,6.40
2023-04-22T03:09:27.113Z,6.50
2023-04-22T03:11:53.800Z,6.40
2023-04-22T03:14:20.710Z,6.40
2023-04-22T03:16:47.515Z,6.40
2023-04-22T03:19:14.316Z,6.40
2023-04-22T03:21:40.963Z,6.40
2023-04-22T03:24:07.828Z,6.30
2023-04-22T03:26:34.501Z,6.30
2023-04-22T03:29:01.361Z,8.10
2023-04-22T03:31:28.088Z,6.20
2023-04-22T03:33:54.802Z,6.10
2023-04-22T03:36:21.800Z,6.10
2023-04-22T03:38:48.530Z,6.10
2023-04-22T03:41:15.276Z,6.10
2023-04-22T03:43:41.919Z,6.00
2023-04-22T03:46:08.796Z,5.90
2023-04-22T03:48:35.937Z,5.90
2023-04-22T03:51:03.463Z,5.90
2023-04-22T03:53:30.156Z,5.90
2023-04-22T03:55:56.889Z,6.00
2023-04-22T03:58:23.578Z,6.00
2023-04-22T04:00:50.475Z,6.00
2023-04-22T04:03:17.308Z,6.00
2023-04-22T04:05:44.142Z,6.00
2023-04-22T04:08:11.245Z,7.20
2023-04-22T04:10:38.074Z,6.00
2023-04-22T04:13:05.134Z,7.00
2023-04-22T04:15:32.723Z,6.00
2023-04-22T04:18:01.243Z,6.20
2023-04-22T04:20:28.186Z,6.00
2023-04-22T04:22:54.917Z,6.00
2023-04-22T04:25:21.681Z,6.10
2023-04-22T04:27:48.586Z,6.10
2023-04-22T04:30:16.327Z,7.90
2023-04-22T04:32:45.601Z,6.20
2023-04-22T04:35:15.274Z,6.30
2023-04-22T04:37:46.464Z,6.30
2023-04-22T04:40:13.768Z,6.30
2023-04-22T04:42:40.763Z,6.90
2023-04-22T04:45:09.299Z,6.30
2023-04-22T04:47:36.069Z,6.30
2023-04-22T04:50:04.344Z,6.40
2023-04-22T04:52:32.153Z,6.40
2023-04-22T04:54:59.065Z,6.40
2023-04-22T04:57:25.839Z,6.40
2023-04-22T04:59:52.682Z,6.40
2023-04-22T05:02:19.871Z,6.40
2023-04-22T05:04:46.879Z,7.00
2023-04-22T05:07:14.314Z,8.20
2023-04-22T05:09:41.500Z,6.60
2023-04-22T05:12:08.561Z,6.70
2023-04-22T05:14:35.380Z,6.80
2023-04-22T05:17:02.710Z,6.80
2023-04-22T05:19:29.404Z,6.90
2023-04-22T05:21:56.117Z,7.00
2023-04-22T05:24:22.804Z,7.10
2023-04-22T05:26:49.892Z,7.10
2023-04-22T05:29:16.754Z,7.10
2023-04-22T05:31:43.526Z,7.10
2023-04-22T05:34:11.869Z,7.20
2023-04-22T05:36:38.815Z,7.30
2023-04-22T05:39:06.077Z,7.30
2023-04-22T05:41:32.895Z,7.40
2023-04-22T05:43:59.790Z,7.60
2023-04-22T05:46:26.715Z,7.70
2023-04-22T05:48:54.868Z,7.80
2023-04-22T05:51:23.576Z,7.80
2023-04-22T05:53:50.961Z,7.90
2023-04-22T05:56:17.886Z,9.00
2023-04-22T05:58:44.881Z,8.20
2023-04-22T06:01:11.685Z,8.30
2023-04-22T06:03:39.008Z,8.40
2023-04-22T06:06:06.521Z,8.50
2023-04-22T06:08:33.449Z,8.70
2023-04-22T06:11:00.481Z,9.10
2023-04-22T06:13:28.033Z,9.00
2023-04-22T06:15:55.098Z,9.10
2023-04-22T06:18:21.967Z,9.20
2023-04-22T06:20:49.115Z,9.30
2023-04-22T06:23:15.952Z,9.50
2023-04-22T06:25:43.206Z,9.60
2023-04-22T06:28:10.220Z,9.70
2023-04-22T06:30:36.891Z,9.90
2023-04-22T06:33:03.841Z,10.00
2023-04-22T06:35:31.333Z,10.20
2023-04-22T06:37:58.048Z,10.40
2023-04-22T06:40:25.024Z,10.60
2023-04-22T06:42:51.928Z,10.70
2023-04-22T06:45:18.807Z,10.90
2023-04-22T06:47:45.859Z,11.10
2023-04-22T06:50:12.753Z,11.30
2023-04-22T06:52:39.681Z,11.50
2023-04-22T06:55:07.166Z,11.70
2023-04-22T06:57:34.076Z,11.90
2023-04-22T07:00:01.212Z,12.10
2023-04-22T07:02:28.291Z,12.30
2023-04-22T07:04:58.406Z,12.50
2023-04-22T07:07:25.389Z,12.70
2023-04-22T07:09:52.472Z,12.80
2023-04-22T07:12:19.484Z,13.60
2023-04-22T07:14:47.100Z,13.20
2023-04-22T07:17:13.904Z,13.50
2023-04-22T07:19:41.505Z,13.60
2023-04-22T07:22:08.668Z,13.70
2023-04-22T07:24:35.850Z,14.00
2023-04-22T07:27:03.811Z,14.00
2023-04-22T07:29:30.495Z,14.10
2023-04-22T07:31:57.970Z,14.30
2023-04-22T07:34:25.263Z,14.50
2023-04-22T07:36:54.035Z,14.60
2023-04-22T07:39:23.359Z,14.70
2023-04-22T07:41:51.684Z,14.90
2023-04-22T07:44:21.845Z,15.00
2023-04-22T07:46:50.449Z,15.20
2023-04-22T07:49:17.848Z,15.30
2023-04-22T07:51:46.640Z,15.50
2023-04-22T07:54:14.858Z,15.70
2023-04-22T07:56:42.144Z,15.80
2023-04-22T07:59:09.379Z,16.00
2023-04-22T08:01:36.822Z,16.10
2023-04-22T08:04:04.220Z,16.20
2023-04-22T08:06:32.782Z,16.30
2023-04-22T08:09:00.582Z,16.40
2023-04-22T08:11:28.571Z,16.50
2023-04-22T08:13:56.883Z,16.60
2023-04-22T08:16:24.278Z,16.80
2023-04-22T08:18:52.303Z,16.90
2023-04-22T08:21:19.096Z,17.00
2023-04-22T08:23:46.785Z,17.10
2023-04-22T08:26:15.324Z,17.20
2023-04-22T08:28:45.180Z,17.30
2023-04-22T08:31:12.985Z,17.40
2023-04-22T08:33:43.019Z,17.50
2023-04-22T08:36:11.122Z,17.70
2023-04-22T08:38:38.113Z,17.80
2023-04-22T08:41:06.189Z,17.90
2023-04-22T08:43:34.370Z,18.00
2023-04-22T08:46:02.153Z,18.10
2023-04-22T08:48:28.856Z,18.20
2023-04-22T08:50:55.851Z,18.30
2023-04-22T08:53:24.623Z,18.30
2023-04-22T08:55:52.099Z,18.40
2023-04-22T08:58:19.022Z,18.50
2023-04-22T09:00:45.927Z,18.60
2023-04-22T09:03:12.979Z,18.70
2023-04-22T09:05:41.211Z,18.80
2023-04-22T09:08:09.823Z,18.80
2023-04-22T09:10:38.134Z,19.00
2023-04-22T09:13:06.315Z,19.10
2023-04-22T09:15:33.777Z,19.20
2023-04-22T09:18:03.621Z,19.40
2023-04-22T09:20:31.483Z,19.50
2023-04-22T09:23:04.072Z,19.60
2023-04-22T09:25:35.106Z,19.70
2023-04-22T09:28:02.258Z,19.70
2023-04-22T09:30:34.903Z,19.80
2023-04-22T09:33:04.289Z,19.90
2023-04-22T09:35:38.143Z,19.90
2023-04-22T09:38:10.405Z,20.00
2023-04-22T09:40:41.219Z,20.10
2023-04-22T09:43:09.510Z,20.10
2023-04-22T09:45:43.277Z,20.20
2023-04-22T09:48:14.305Z,20.30
2023-04-22T09:50:44.474Z,20.30
2023-04-22T09:53:13.689Z,20.30
2023-04-22T09:55:43.532Z,20.40
2023-04-22T09:58:14.950Z,20.40
2023-04-22T10:00:48.987Z,20.50
2023-04-22T10:03:16.856Z,20.70
2023-04-22T10:05:45.698Z,20.80
2023-04-22T10:08:14.263Z,20.80
2023-04-22T10:10:41.473Z,20.80
2023-04-22T10:13:08.627Z,20.90
2023-04-22T10:15:39.863Z,21.00
2023-04-22T10:18:13.355Z,21.00
2023-04-22T10:20:42.431Z,21.10
2023-04-22T10:23:19.645Z,21.10
2023-04-22T10:25:58.922Z,21.10
2023-04-22T10:28:28.873Z,21.10
2023-04-22T10:30:55.795Z,21.00
2023-04-22T10:33:23.957Z,21.10
2023-04-22T10:36:15.015Z,21.00
2023-04-22T10:39:03.015Z,21.10
2023-04-22T10:41:32.300Z,21.10
2023-04-22T10:44:01.187Z,21.10
2023-04-22T10:46:32.016Z,21.20
2023-04-22T10:48:59.647Z,21.40
2023-04-22T10:51:42.766Z,21.40
2023-04-22T10:54:33.627Z,21.50
2023-04-22T10:57:08.256Z,21.50
2023-04-22T10:59:58.033Z,20.30
2023-04-22T11:02:24.978Z,21.50
2023-04-22T11:04:57.009Z,21.50
2023-04-22T11:07:27.070Z,21.50
2023-04-22T11:10:03.161Z,21.40
2023-04-22T11:12:35.966Z,21.50
2023-04-22T11:15:10.577Z,21.70
2023-04-22T11:17:39.014Z,21.70
2023-04-22T11:20:07.638Z,21.60
2023-04-22T11:22:39.181Z,21.60
2023-04-22T11:25:06.626Z,21.80
2023-04-22T11:27:33.390Z,21.80
2023-04-22T11:30:08.303Z,21.70
2023-04-22T11:32:36.129Z,21.70
2023-04-22T11:35:08.545Z,21.70
2023-04-22T11:37:55.965Z,21.60
2023-04-22T11:40:46.152Z,21.60
2023-04-22T11:43:14.209Z,21.70
2023-04-22T11:45:41.547Z,21.70
2023-04-22T11:48:10.131Z,21.90
2023-04-22T11:50:39.702Z,22.00
2023-04-22T11:53:18.851Z,22.00
2023-04-22T11:55:47.435Z,22.00
2023-04-22T11:58:19.399Z,21.90
2023-04-22T12:00:51.884Z,21.90
2023-04-22T12:03:24.829Z,22.00
2023-04-22T12:05:54.208Z,22.10
2023-04-22T12:08:23.889Z,22.10
2023-04-22T12:10:59.647Z,22.20
2023-04-22T12:13:48.097Z,22.20
2023-04-22T12:16:18.544Z,22.10
2023-04-22T12:18:48.303Z,21.90
2023-04-22T12:21:17.886Z,21.90
2023-04-22T12:23:49.089Z,21.80
2023-04-22T12:26:17.775Z,21.90
2023-04-22T12:28:45.895Z,21.90
2023-04-22T12:31:14.169Z,21.90
2023-04-22T12:33:41.568Z,22.10
2023-04-22T12:36:08.632Z,22.10
2023-04-22T12:38:35.861Z,22.10
2023-04-22T12:41:04.836Z,22.10
2023-04-22T12:43:33.614Z,22.10
2023-04-22T12:46:00.533Z,22.20
2023-04-22T12:48:27.717Z,22.30
2023-04-22T12:50:54.655Z,22.40
2023-04-22T12:53:22.392Z,22.40
2023-04-22T12:55:49.819Z,22.30
2023-04-22T12:58:16.960Z,22.30
2023-04-22T13:00:44.275Z,22.20
2023-04-22T13:03:14.850Z,22.20
2023-04-22T13:05:42.216Z,22.30
2023-04-22T13:08:09.494Z,22.40
2023-04-22T13:10:36.668Z,22.40
2023-04-22T13:15:39.224Z,22.50
2023-04-22T13:18:06.724Z,22.60
2023-04-22T13:20:39.860Z,22.70
2023-04-22T13:23:08.354Z,22.80
2023-04-22T13:25:36.383Z,22.70
2023-04-22T13:28:03.483Z,22.60
2023-04-22T13:30:30.782Z,22.50
2023-04-22T13:32:57.917Z,22.40
2023-04-22T13:35:25.048Z,22.20
2023-04-22T13:37:52.066Z,22.20
2023-04-22T13:40:19.129Z,22.40
2023-04-22T13:42:46.502Z,22.60
2023-04-22T13:45:13.647Z,22.70
2023-04-22T13:47:41.026Z,22.80
2023-04-22T13:50:08.896Z,22.70
2023-04-22T13:52:36.087Z,22.70
2023-04-22T13:55:04.240Z,22.70
2023-04-22T13:57:31.719Z,22.60
2023-04-22T13:59:58.815Z,22.50
2023-04-22T14:02:25.976Z,22.50
2023-04-22T14:04:53.304Z,22.50
2023-04-22T14:07:20.572Z,21.90
2023-04-22T14:09:48.459Z,22.50
2023-04-22T14:12:15.480Z,22.40
2023-04-22T14:14:42.637Z,22.30
2023-04-22T14:17:09.663Z,22.20
2023-04-22T14:19:39.192Z,22.30
2023-04-22T14:22:06.945Z,22.30
2023-04-22T14:24:34.116Z,22.40
2023-04-22T14:27:04.530Z,22.50
2023-04-22T14:29:32.112Z,22.60
2023-04-22T14:31:59.649Z,22.70
2023-04-22T14:34:29.785Z,22.70
2023-04-22T14:36:58.007Z,22.70
2023-04-22T14:39:27.653Z,22.60
2023-04-22T14:41:58.451Z,22.70
2023-04-22T14:44:29.697Z,22.80
2023-04-22T14:47:00.557Z,22.70
2023-04-22T14:49:32.723Z,22.50
2023-04-22T14:52:03.989Z,22.20
2023-04-22T14:54:31.457Z,22.00
2023-04-22T14:56:58.867Z,21.90
2023-04-22T14:59:32.666Z,21.90
2023-04-22T15:02:06.354Z,22.00
2023-04-22T15:04:33.763Z,22.10
2023-04-22T15:07:06.918Z,22.30
2023-04-22T15:09:37.948Z,22.30
2023-04-22T15:12:09.368Z,22.20
2023-04-22T15:14:39.637Z,22.10
2023-04-22T15:17:06.732Z,22.20
2023-04-22T15:19:37.195Z,22.20
2023-04-22T15:22:04.598Z,22.30
2023-04-22T15:24:31.810Z,22.40
2023-04-22T15:27:00.871Z,22.40
2023-04-22T15:29:28.729Z,22.50
2023-04-22T15:31:59.035Z,22.50
2023-04-22T15:34:26.418Z,22.50
2023-04-22T15:36:54.400Z,22.40
2023-04-22T15:39:23.977Z,22.20
2023-04-22T15:41:55.217Z,22.10
2023-04-22T15:44:22.305Z,22.10
2023-04-22T15:46:52.317Z,22.10
2023-04-22T15:49:26.373Z,22.20
2023-04-22T15:51:54.073Z,22.30
2023-04-22T15:54:21.361Z,22.40
2023-04-22T15:56:48.626Z,22.40
2023-04-22T15:59:21.745Z,22.40
2023-04-22T16:01:50.944Z,22.30
2023-04-22T16:04:19.623Z,22.20
2023-04-22T16:06:49.074Z,22.10
2023-04-22T16:09:18.078Z,22.20
2023-04-22T16:11:48.934Z,22.40
2023-04-22T16:14:17.124Z,22.60
2023-04-22T16:16:47.866Z,22.70
2023-04-22T16:19:18.817Z,22.80
2023-04-22T16:21:48.390Z,22.90
2023-04-22T16:24:19.862Z,23.00
2023-04-22T16:26:47.119Z,23.00
2023-04-22T16:29:17.323Z,22.80
2023-04-22T16:31:44.447Z,22.50
2023-04-22T16:34:14.988Z,22.30
2023-04-22T16:36:44.384Z,22.20
2023-04-22T16:39:15.262Z,22.20
2023-04-22T16:41:43.591Z,22.30
2023-04-22T16:44:10.756Z,22.50
2023-04-22T16:46:38.274Z,22.70
2023-04-22T16:49:10.581Z,22.70
2023-04-22T16:51:38.062Z,22.50
2023-04-22T16:54:05.907Z,22.30
2023-04-22T16:56:37.686Z,22.20
2023-04-22T16:59:08.204Z,22.20
2023-04-22T17:01:40.973Z,22.20
2023-04-22T17:04:11.751Z,22.20
2023-04-22T17:06:41.519Z,22.10
2023-04-22T17:09:09.878Z,21.90
2023-04-22T17:11:37.301Z,21.70
2023-04-22T17:14:04.357Z,21.60
2023-04-22T17:16:35.282Z,21.70
2023-04-22T17:19:02.464Z,21.80
2023-04-22T17:21:29.624Z,21.80
2023-04-22T17:23:58.799Z,21.70
2023-04-22T17:26:26.563Z,21.60
2023-04-22T17:28:56.077Z,21.80
2023-04-22T17:31:23.730Z,22.20
2023-04-22T17:33:50.767Z,22.70
2023-04-22T17:36:19.985Z,23.20
2023-04-22T17:38:47.177Z,23.10
2023-04-22T17:41:14.621Z,22.90
2023-04-22T17:43:41.919Z,22.60
2023-04-22T17:46:09.495Z,22.60
2023-04-22T17:48:36.871Z,22.70
2023-04-22T17:51:07.685Z,22.40
2023-04-22T17:53:34.911Z,22.00
2023-04-22T17:56:01.971Z,21.60
2023-04-22T17:58:43.116Z,21.20
2023-04-22T18:01:10.143Z,21.00
2023-04-22T18:03:37.446Z,20.70
2023-04-22T18:06:04.510Z,20.40
2023-04-22T18:08:34.459Z,20.20
2023-04-22T18:11:03.237Z,20.00
2023-04-22T18:13:30.156Z,19.80
2023-04-22T18:15:57.056Z,19.60
2023-04-22T18:18:23.898Z,19.40
2023-04-22T18:20:50.845Z,19.20
2023-04-22T18:23:20.917Z,19.00
2023-04-22T18:25:48.040Z,18.80
2023-04-22T18:28:15.812Z,18.60
2023-04-22T18:30:44.321Z,18.50
2023-04-22T18:33:11.330Z,18.30
2023-04-22T18:35:41.386Z,18.10
2023-04-22T18:38:08.209Z,18.00
2023-04-22T18:40:35.094Z,17.80
2023-04-22T18:43:02.203Z,17.60
2023-04-22T18:45:28.922Z,17.50
2023-04-22T18:47:58.878Z,17.30
2023-04-22T18:50:25.823Z,17.10
2023-04-22T18:52:53.255Z,17.00
2023-04-22T18:55:20.179Z,16.90
2023-04-22T18:57:46.927Z,16.70
2023-04-22T19:00:14.264Z,16.60
2023-04-22T19:02:42.552Z,16.40
2023-04-22T19:05:13.548Z,16.30
2023-04-22T19:07:45.232Z,16.20
2023-04-22T19:10:12.611Z,16.00
2023-04-22T19:12:43.951Z,15.90
2023-04-22T19:15:11.735Z,15.70
2023-04-22T19:17:42.691Z,15.60
2023-04-22T19:20:14.286Z,15.50
2023-04-22T19:22:41.728Z,15.40
2023-04-22T19:25:09.484Z,15.20
2023-04-22T19:27:37.350Z,15.10
2023-04-22T19:30:06.787Z,15.00
2023-04-22T19:32:34.309Z,14.90
2023-04-22T19:35:03.981Z,14.80
2023-04-22T19:37:31.563Z,14.60
2023-04-22T19:40:04.237Z,14.60
2023-04-22T19:42:31.974Z,14.40
2023-04-22T19:45:00.145Z,14.30
2023-04-22T19:47:28.411Z,14.20
2023-04-22T19:50:06.862Z,14.10
2023-04-22T19:52:35.939Z,14.00
2023-04-22T19:55:10.871Z,13.90
2023-04-22T19:57:42.532Z,13.80
2023-04-22T20:00:11.281Z,13.70
2023-04-22T20:02:39.710Z,13.70
2023-04-22T20:05:10.858Z,13.60
2023-04-22T20:07:38.728Z,13.50
2023-04-22T20:10:08.645Z,13.40
2023-04-22T20:12:37.351Z,13.30
2023-04-22T20:15:09.639Z,13.20
2023-04-22T20:17:40.503Z,13.10
2023-04-22T20:20:13.167Z,13.10
2023-04-22T20:22:44.855Z,13.00
2023-04-22T20:25:14.117Z,12.90
2023-04-22T20:27:42.194Z,12.90
2023-04-22T20:30:10.580Z,12.80
2023-04-22T20:32:37.998Z,12.70
2023-04-22T20:35:12.553Z,12.60
2023-04-22T20:37:40.134Z,12.50
2023-04-22T20:40:11.271Z,12.50
2023-04-22T20:42:38.417Z,12.40
2023-04-22T20:45:09.899Z,12.30
2023-04-22T20:47:40.473Z,12.30
2023-04-22T20:50:08.445Z,12.30
2023-04-22T20:52:35.765Z,12.20
2023-04-22T20:55:07.256Z,12.10
2023-04-22T20:57:37.408Z,12.10
2023-04-22T21:00:07.735Z,12.00
2023-04-22T21:02:36.435Z,12.00
2023-04-22T21:05:07.788Z,12.00
2023-04-22T21:07:38.094Z,11.90
2023-04-22T21:10:06.075Z,11.90
2023-04-22T21:12:33.477Z,11.90
2023-04-22T21:15:04.486Z,11.80
2023-04-22T21:17:37.913Z,11.80
2023-04-22T21:20:05.763Z,11.80
2023-04-22T21:22:40.028Z,11.80
2023-04-22T21:25:11.332Z,11.90
2023-04-22T21:27:41.969Z,11.80
2023-04-22T21:30:09.709Z,11.80
2023-04-22T21:32:41.601Z,11.80
2023-04-22T21:35:11.400Z,11.80
2023-04-22T21:37:38.450Z,11.80
2023-04-22T21:40:08.794Z,11.80
2023-04-22T21:42:35.829Z,11.80
2023-04-22T21:45:04.218Z,11.80
2023-04-22T21:47:35.010Z,11.80
2023-04-22T21:50:02.371Z,11.80
2023-04-22T21:52:29.565Z,11.80
2023-04-22T21:54:56.644Z,11.80
2023-04-22T21:57:24.247Z,11.80
2023-04-22T21:59:51.416Z,11.80
2023-04-22T22:02:18.792Z,11.90
2023-04-22T22:04:49.040Z,11.90
2023-04-22T22:07:18.176Z,11.90
2023-04-22T22:09:46.666Z,11.90
2023-04-22T22:12:15.680Z,11.90
2023-04-22T22:14:43.706Z,11.90
2023-04-22T22:17:10.820Z,11.90
2023-04-22T22:19:42.087Z,11.90
2023-04-22T22:22:12.899Z,11.90
2023-04-22T22:24:40.311Z,11.90
2023-04-22T22:27:10.076Z,12.00
2023-04-22T22:29:41.077Z,12.00
2023-04-22T22:32:08.423Z,12.00
2023-04-22T22:34:39.573Z,12.00
2023-04-22T22:37:07.378Z,12.10
2023-04-22T22:39:34.499Z,12.10
2023-04-22T22:42:02.124Z,12.10
2023-04-22T22:44:32.805Z,12.10
2023-04-22T22:47:00.381Z,12.10
2023-04-22T22:49:27.438Z,12.20
2023-04-22T22:51:58.855Z,12.10
2023-04-22T22:54:29.173Z,12.20
2023-04-22T22:56:59.446Z,12.20
2023-04-22T22:59:26.290Z,12.20
2023-04-22T23:01:53.845Z,12.30
2023-04-22T23:04:27.542Z,12.30
2023-04-22T23:06:55.617Z,12.30
2023-04-22T23:09:26.441Z,12.30
2023-04-22T23:11:55.854Z,12.30
2023-04-22T23:14:26.881Z,12.40
2023-04-22T23:16:54.105Z,12.40
2023-04-22T23:19:22.207Z,12.40
2023-04-22T23:21:49.873Z,12.40
2023-04-22T23:24:17.537Z,12.30
2023-04-22T23:26:48.590Z,12.30
2023-04-22T23:29:16.873Z,12.40
2023-04-22T23:31:45.083Z,12.40
2023-04-22T23:34:15.171Z,12.40
2023-04-22T23:36:43.253Z,12.40
2023-04-22T23:39:10.498Z,12.40
2023-04-22T23:41:37.605Z,12.30
2023-04-22T23:44:05.213Z,12.30
2023-04-22T23:46:32.744Z,12.30
2023-04-22T23:49:03.234Z,12.30
2023-04-22T23:51:30.554Z,12.30
2023-04-22T23:54:02.009Z,12.30
2023-04-22T23:56:29.256Z,12.20
2023-04-22T23:58:57.257Z,12.20
